createdAt,value
2023-03-17T00:00:56.592Z,48.20
2023-03-17T00:02:59.805Z,53.75
2023-03-17T00:05:01.566Z,44.83
2023-03-17T00:07:03.184Z,47.15
2023-03-17T00:09:04.772Z,51.50
2023-03-17T00:11:10.589Z,64.72
2023-03-17T00:13:12.837Z,50.42
2023-03-17T00:15:15.051Z,54.92
2023-03-17T00:17:16.598Z,116.53
2023-03-17T00:19:26.492Z,81.82
2023-03-17T00:21:34.151Z,105.32
2023-03-17T00:23:36.403Z,72.20
2023-03-17T00:25:43.076Z,90.88
2023-03-17T00:27:44.618Z,93.53
2023-03-17T00:29:47.054Z,78.40
2023-03-17T00:31:49.414Z,62.33
2023-03-17T00:33:53.978Z,53.72
2023-03-17T00:35:57.458Z,50.50
2023-03-17T00:37:59.558Z,50.75
2023-03-17T00:40:01.664Z,44.78
2023-03-17T00:42:03.276Z,52.90
2023-03-17T00:44:04.970Z,69.35
2023-03-17T00:46:16.622Z,73.20
2023-03-17T00:48:21.058Z,57.10
2023-03-17T00:50:25.469Z,68.93
2023-03-17T00:52:27.531Z,94.18
2023-03-17T00:54:29.013Z,89.53
2023-03-17T00:56:31.089Z,75.28
2023-03-17T00:58:34.303Z,72.47
2023-03-17T01:00:36.949Z,86.57
2023-03-17T01:02:38.562Z,59.90
2023-03-17T01:04:41.888Z,53.47
2023-03-17T01:06:44.403Z,51.20
2023-03-17T01:08:46.602Z,58.55
2023-03-17T01:10:48.462Z,57.97
2023-03-17T01:12:51.134Z,46.03
2023-03-17T01:14:52.887Z,51.95
2023-03-17T01:16:55.293Z,49.92
2023-03-17T01:18:57.143Z,46.17
2023-03-17T01:20:58.685Z,48.00
2023-03-17T01:23:01.672Z,46.13
2023-03-17T01:25:05.044Z,52.58
2023-03-17T01:27:07.324Z,55.00
2023-03-17T01:29:08.916Z,53.97
2023-03-17T01:31:10.771Z,71.85
2023-03-17T01:33:14.774Z,89.75
2023-03-17T01:35:16.444Z,64.07
2023-03-17T01:37:17.963Z,86.85
2023-03-17T01:39:19.699Z,84.97
2023-03-17T01:41:21.208Z,88.57
2023-03-17T01:43:29.503Z,82.65
2023-03-17T01:46:09.636Z,88.90
2023-03-17T01:48:11.749Z,84.07
2023-03-17T01:50:13.322Z,81.85
2023-03-17T01:52:21.795Z,82.50
2023-03-17T01:54:29.750Z,71.45
2023-03-17T01:56:31.549Z,69.95
2023-03-17T01:58:34.330Z,63.38
2023-03-17T02:00:35.874Z,85.32
2023-03-17T02:02:40.356Z,103.47
2023-03-17T02:04:42.125Z,130.00
2023-03-17T02:06:57.582Z,75.00
2023-03-17T02:09:01.621Z,81.50
2023-03-17T02:11:05.300Z,117.85
2023-03-17T02:13:07.970Z,85.72
2023-03-17T02:15:11.358Z,63.88
2023-03-17T02:17:12.968Z,88.93
2023-03-17T02:19:14.586Z,66.72
2023-03-17T02:21:56.960Z,62.28
2023-03-17T02:24:02.587Z,62.47
2023-03-17T02:26:05.180Z,63.15
2023-03-17T02:28:15.027Z,68.35
2023-03-17T02:30:20.601Z,63.72
2023-03-17T02:32:22.294Z,90.15
2023-03-17T02:34:23.814Z,100.63
2023-03-17T02:36:25.403Z,91.70
2023-03-17T02:38:27.138Z,82.30
2023-03-17T02:40:29.017Z,97.97
2023-03-17T02:42:30.691Z,72.13
2023-03-17T02:44:33.086Z,80.40
2023-03-17T02:46:34.920Z,94.25
2023-03-17T02:48:37.560Z,85.13
2023-03-17T02:50:39.442Z,93.45
2023-03-17T02:52:41.604Z,81.53
2023-03-17T02:54:43.146Z,79.57
2023-03-17T02:56:44.902Z,85.20
2023-03-17T02:58:46.520Z,86.20
2023-03-17T03:00:49.001Z,80.18
2023-03-17T03:02:50.589Z,73.65
2023-03-17T03:04:53.427Z,78.05
2023-03-17T03:06:55.094Z,85.10
2023-03-17T03:08:56.583Z,87.25
2023-03-17T03:10:58.203Z,98.03
2023-03-17T03:12:59.699Z,85.32
2023-03-17T03:15:01.233Z,87.13
2023-03-17T03:17:02.855Z,79.07
2023-03-17T03:19:05.690Z,79.32
2023-03-17T03:21:07.576Z,78.75
2023-03-17T03:23:09.173Z,82.75
2023-03-17T03:25:10.792Z,80.70
2023-03-17T03:27:12.429Z,85.57
2023-03-17T03:29:13.940Z,84.32
2023-03-17T03:31:16.258Z,89.20
2023-03-17T03:33:17.910Z,79.60
2023-03-17T03:35:19.489Z,77.57
2023-03-17T03:37:21.101Z,89.13
2023-03-17T03:39:22.670Z,96.38
2023-03-17T03:41:24.164Z,103.75
2023-03-17T03:43:25.782Z,88.85
2023-03-17T03:45:27.645Z,76.68
2023-03-17T03:47:29.176Z,72.43
2023-03-17T03:49:30.682Z,76.43
2023-03-17T03:51:32.203Z,131.40
2023-03-17T03:53:33.864Z,109.15
2023-03-17T03:55:35.644Z,97.75
2023-03-17T03:57:37.355Z,89.55
2023-03-17T03:59:39.128Z,75.75
2023-03-17T04:02:33.533Z,79.55
2023-03-17T04:05:27.965Z,68.97
2023-03-17T04:08:22.094Z,73.03
2023-03-17T04:11:16.704Z,69.38
2023-03-17T04:14:10.790Z,75.80
2023-03-17T04:17:05.311Z,82.22
2023-03-17T04:19:59.647Z,69.50
2023-03-17T04:22:53.859Z,84.22
2023-03-17T04:25:49.866Z,65.90
2023-03-17T04:28:44.000Z,98.72
2023-03-17T04:31:39.758Z,83.90
2023-03-17T04:34:33.863Z,79.47
2023-03-17T04:37:28.015Z,80.88
2023-03-17T04:40:22.214Z,86.72
2023-03-17T04:43:16.912Z,77.07
2023-03-17T04:46:11.146Z,80.35
2023-03-17T04:49:05.235Z,78.40
2023-03-17T04:51:59.295Z,75.95
2023-03-17T04:54:53.488Z,76.68
2023-03-17T04:57:47.583Z,94.45
2023-03-17T05:00:41.912Z,88.97
2023-03-17T05:03:53.965Z,85.35
2023-03-17T05:06:48.258Z,89.70
2023-03-17T05:09:42.645Z,77.03
2023-03-17T05:12:39.917Z,81.82
2023-03-17T05:15:34.072Z,115.55
2023-03-17T05:18:34.197Z,219.88
2023-03-17T05:21:33.907Z,129.98
2023-03-17T05:24:28.551Z,87.28
2023-03-17T05:27:34.732Z,88.95
2023-03-17T05:30:36.649Z,79.55
2023-03-17T05:33:30.749Z,83.55
2023-03-17T05:36:38.311Z,74.40
2023-03-17T05:39:43.020Z,83.45
2023-03-17T05:42:37.104Z,71.13
2023-03-17T05:45:40.338Z,74.28
2023-03-17T05:48:34.824Z,66.47
2023-03-17T05:51:28.899Z,60.10
2023-03-17T05:54:24.250Z,64.35
2023-03-17T05:57:18.313Z,59.83
2023-03-17T06:00:13.505Z,54.80
2023-03-17T06:03:07.987Z,65.53
2023-03-17T06:06:02.293Z,63.72
2023-03-17T06:08:56.592Z,62.90
2023-03-17T06:11:50.935Z,83.15
2023-03-17T06:14:48.554Z,68.50
2023-03-17T06:17:42.808Z,73.60
2023-03-17T06:20:37.261Z,56.50
2023-03-17T06:23:34.510Z,54.92
2023-03-17T06:26:28.818Z,53.78
2023-03-17T06:29:32.491Z,45.95
2023-03-17T06:32:23.623Z,47.65
2023-03-17T06:35:18.051Z,51.35
2023-03-17T06:38:13.537Z,55.60
2023-03-17T06:41:09.159Z,68.70
2023-03-17T06:44:05.412Z,60.35
2023-03-17T06:46:58.469Z,50.35
2023-03-17T06:49:01.381Z,48.95
2023-03-17T06:51:02.937Z,46.75
2023-03-17T06:53:05.107Z,46.58
2023-03-17T06:55:07.265Z,46.80
2023-03-17T06:57:09.689Z,50.92
2023-03-17T06:59:11.446Z,53.92
2023-03-17T07:01:14.598Z,60.72
2023-03-17T07:03:17.140Z,62.53
2023-03-17T07:05:18.994Z,80.55
2023-03-17T07:07:21.211Z,60.92
2023-03-17T07:09:23.241Z,54.67
2023-03-17T07:11:26.293Z,42.53
2023-03-17T07:13:28.128Z,50.92
2023-03-17T07:15:34.847Z,45.65
2023-03-17T07:17:36.501Z,39.50
2023-03-17T07:19:38.026Z,39.55
2023-03-17T07:21:39.540Z,36.60
2023-03-17T07:23:41.348Z,36.10
2023-03-17T07:25:43.776Z,35.00
2023-03-17T07:27:45.895Z,39.78
2023-03-17T07:29:47.401Z,40.95
2023-03-17T07:31:49.529Z,41.10
2023-03-17T07:33:51.867Z,32.22
2023-03-17T07:35:54.212Z,29.50
2023-03-17T07:37:55.910Z,33.03
2023-03-17T07:39:57.461Z,29.58
2023-03-17T07:41:59.204Z,34.90
2023-03-17T07:44:01.873Z,29.05
2023-03-17T07:46:06.314Z,22.65
2023-03-17T07:48:08.633Z,23.75
2023-03-17T07:50:11.042Z,27.15
2023-03-17T07:52:12.842Z,24.90
2023-03-17T07:54:15.174Z,23.48
2023-03-17T07:56:17.828Z,18.40
2023-03-17T07:58:20.512Z,31.35
2023-03-17T08:00:23.922Z,22.25
2023-03-17T08:02:26.292Z,20.80
2023-03-17T08:04:28.065Z,21.38
2023-03-17T08:06:30.163Z,19.00
2023-03-17T08:08:32.562Z,23.55
2023-03-17T08:10:34.895Z,15.68
2023-03-17T08:12:36.788Z,20.75
2023-03-17T08:14:38.318Z,18.00
2023-03-17T08:16:39.954Z,21.92
2023-03-17T08:18:41.798Z,16.73
2023-03-17T08:20:43.651Z,19.10
2023-03-17T08:22:45.457Z,16.60
2023-03-17T08:24:47.109Z,14.27
2023-03-17T08:26:49.396Z,14.60
2023-03-17T08:28:51.491Z,15.85
2023-03-17T08:30:53.184Z,20.00
2023-03-17T08:32:55.073Z,9.93
2023-03-17T08:34:56.643Z,27.08
2023-03-17T08:36:58.206Z,26.63
2023-03-17T08:38:59.811Z,34.58
2023-03-17T08:41:06.831Z,19.17
2023-03-17T08:43:09.003Z,28.90
2023-03-17T08:45:11.435Z,10.98
2023-03-17T08:47:13.047Z,7.80
2023-03-17T08:49:14.661Z,8.57
2023-03-17T08:51:18.974Z,10.20
2023-03-17T08:53:24.336Z,12.27
2023-03-17T08:55:25.880Z,8.13
2023-03-17T08:57:28.204Z,14.23
2023-03-17T08:59:29.843Z,10.68
2023-03-17T09:01:32.510Z,8.45
2023-03-17T09:03:34.302Z,9.93
2023-03-17T09:05:38.459Z,10.82
2023-03-17T09:07:41.420Z,8.18
2023-03-17T09:09:43.200Z,11.43
2023-03-17T09:11:44.744Z,11.02
2023-03-17T09:13:47.919Z,7.05
2023-03-17T09:15:56.598Z,9.27
2023-03-17T09:17:58.334Z,8.60
2023-03-17T09:19:59.921Z,12.52
2023-03-17T09:22:03.154Z,11.68
2023-03-17T09:24:04.774Z,10.52
2023-03-17T09:26:06.435Z,10.10
2023-03-17T09:28:10.739Z,9.32
2023-03-17T09:30:13.625Z,7.10
2023-03-17T09:32:16.148Z,8.55
2023-03-17T09:34:18.699Z,12.75
2023-03-17T09:36:24.373Z,11.60
2023-03-17T09:38:28.778Z,14.05
2023-03-17T09:40:33.833Z,9.07
2023-03-17T09:42:59.636Z,10.75
2023-03-17T09:45:42.982Z,11.00
2023-03-17T09:48:06.942Z,10.00
2023-03-17T09:50:56.215Z,10.20
2023-03-17T09:52:58.726Z,12.32
2023-03-17T09:55:03.619Z,9.35
2023-03-17T09:57:24.853Z,9.55
2023-03-17T09:59:52.303Z,11.07
2023-03-17T10:01:54.007Z,7.97
2023-03-17T10:03:55.848Z,9.52
2023-03-17T10:06:32.478Z,11.15
2023-03-17T10:08:38.780Z,6.05
2023-03-17T10:10:49.284Z,10.95
2023-03-17T10:13:32.425Z,9.13
2023-03-17T10:15:41.284Z,7.75
2023-03-17T10:17:43.118Z,10.07
2023-03-17T10:19:54.794Z,9.57
2023-03-17T10:22:01.761Z,9.65
2023-03-17T10:24:04.534Z,10.40
2023-03-17T10:26:25.029Z,8.77
2023-03-17T10:28:32.650Z,14.00
2023-03-17T10:30:35.500Z,9.77
2023-03-17T10:32:39.544Z,8.43
2023-03-17T10:34:42.946Z,12.93
2023-03-17T10:36:48.265Z,15.52
2023-03-17T10:38:54.374Z,10.93
2023-03-17T10:40:58.804Z,11.05
2023-03-17T10:43:08.649Z,13.85
2023-03-17T10:45:25.791Z,8.88
2023-03-17T10:47:38.161Z,10.40
2023-03-17T10:49:39.810Z,9.10
2023-03-17T10:51:46.620Z,13.25
2023-03-17T10:53:53.903Z,8.38
2023-03-17T10:56:09.073Z,12.38
2023-03-17T10:58:20.349Z,9.88
2023-03-17T11:00:23.342Z,10.02
2023-03-17T11:02:29.392Z,11.40
2023-03-17T11:04:39.028Z,11.25
2023-03-17T11:06:44.296Z,13.98
2023-03-17T11:08:53.855Z,9.30
2023-03-17T11:10:59.450Z,10.48
2023-03-17T11:13:02.856Z,11.88
2023-03-17T11:15:07.936Z,12.18
2023-03-17T11:17:19.072Z,14.18
2023-03-17T11:19:31.369Z,11.70
2023-03-17T11:21:47.810Z,8.85
2023-03-17T11:23:57.956Z,8.93
2023-03-17T11:26:21.360Z,10.10
2023-03-17T11:28:31.140Z,11.38
2023-03-17T11:30:36.987Z,10.55
2023-03-17T11:32:56.508Z,8.73
2023-03-17T11:35:23.985Z,15.13
2023-03-17T11:37:59.900Z,11.68
2023-03-17T11:40:07.868Z,10.45
2023-03-17T11:42:34.772Z,12.18
2023-03-17T11:44:49.082Z,11.43
2023-03-17T11:47:22.429Z,6.93
2023-03-17T11:49:37.766Z,9.98
2023-03-17T11:52:05.057Z,9.98
2023-03-17T11:54:17.611Z,14.68
2023-03-17T11:56:24.941Z,11.45
2023-03-17T11:58:35.604Z,10.80
2023-03-17T12:00:45.544Z,10.20
2023-03-17T12:05:11.993Z,7.75
2023-03-17T12:07:24.725Z,14.85
2023-03-17T12:09:42.328Z,12.77
2023-03-17T12:11:49.999Z,8.13
2023-03-17T12:13:59.953Z,11.15
2023-03-17T12:18:54.493Z,7.05
2023-03-17T12:21:25.667Z,12.15
2023-03-17T12:23:45.992Z,14.15
2023-03-17T12:25:55.077Z,11.43
2023-03-17T12:28:16.156Z,8.98
2023-03-17T12:30:27.983Z,13.10
2023-03-17T12:32:38.645Z,11.10
2023-03-17T12:35:02.927Z,10.10
2023-03-17T12:37:04.574Z,14.25
2023-03-17T12:39:14.594Z,20.67
2023-03-17T12:41:56.958Z,31.77
2023-03-17T12:44:08.078Z,10.13
2023-03-17T12:46:23.153Z,13.07
2023-03-17T12:49:02.252Z,13.70
2023-03-17T12:51:36.738Z,11.82
2023-03-17T12:53:46.544Z,27.30
2023-03-17T12:55:51.701Z,28.58
2023-03-17T12:58:03.863Z,27.20
2023-03-17T13:00:25.508Z,11.38
2023-03-17T13:02:30.392Z,13.98
2023-03-17T13:04:37.849Z,7.68
2023-03-17T13:06:46.601Z,18.02
2023-03-17T13:08:50.392Z,10.63
2023-03-17T13:11:30.847Z,9.90
2023-03-17T13:13:46.804Z,7.82
2023-03-17T13:15:54.377Z,9.43
2023-03-17T13:18:34.109Z,11.27
2023-03-17T13:20:42.565Z,7.55
2023-03-17T13:23:16.550Z,8.82
2023-03-17T13:25:57.783Z,7.85
2023-03-17T13:28:21.141Z,8.82
2023-03-17T13:30:22.954Z,11.18
2023-03-17T13:32:24.812Z,12.25
2023-03-17T13:34:28.907Z,10.13
2023-03-17T13:36:33.619Z,11.55
2023-03-17T13:38:35.522Z,8.90
2023-03-17T13:40:52.007Z,9.45
2023-03-17T13:43:09.588Z,11.75
2023-03-17T13:45:34.097Z,18.90
2023-03-17T13:47:42.508Z,13.00
2023-03-17T13:49:50.927Z,5.82
2023-03-17T13:52:03.541Z,14.15
2023-03-17T13:54:20.032Z,17.52
2023-03-17T13:56:26.379Z,12.70
2023-03-17T13:58:33.522Z,11.13
2023-03-17T14:00:38.069Z,10.32
2023-03-17T14:02:40.842Z,14.68
2023-03-17T14:04:53.532Z,14.13
2023-03-17T14:06:59.448Z,11.55
2023-03-17T14:09:08.302Z,26.98
2023-03-17T14:11:24.096Z,10.90
2023-03-17T14:13:29.944Z,9.13
2023-03-17T14:15:46.311Z,8.20
2023-03-17T14:17:53.515Z,11.13
2023-03-17T14:20:19.686Z,14.00
2023-03-17T14:22:23.964Z,12.95
2023-03-17T14:24:35.199Z,9.27
2023-03-17T14:26:36.819Z,9.43
2023-03-17T14:28:38.425Z,7.30
2023-03-17T14:30:40.285Z,17.52
2023-03-17T14:32:48.104Z,60.25
2023-03-17T14:34:58.535Z,19.33
2023-03-17T14:37:03.071Z,11.57
2023-03-17T14:39:04.867Z,16.60
2023-03-17T14:41:13.737Z,11.73
2023-03-17T14:43:16.269Z,19.75
2023-03-17T14:45:28.237Z,13.13
2023-03-17T14:47:37.291Z,19.38
2023-03-17T14:49:39.452Z,19.00
2023-03-17T14:51:42.258Z,46.25
2023-03-17T14:53:46.741Z,40.22
2023-03-17T14:55:48.678Z,93.38
2023-03-17T14:57:52.359Z,107.90
2023-03-17T15:00:01.466Z,23.52
2023-03-17T15:02:20.980Z,57.15
2023-03-17T15:04:34.407Z,41.58
2023-03-17T15:06:37.554Z,65.25
2023-03-17T15:08:41.476Z,48.17
2023-03-17T15:10:44.223Z,16.75
2023-03-17T15:12:46.900Z,26.48
2023-03-17T15:14:52.151Z,38.50
2023-03-17T15:16:55.271Z,46.53
2023-03-17T15:19:19.967Z,24.83
2023-03-17T15:21:32.987Z,81.90
2023-03-17T15:23:39.787Z,58.97
2023-03-17T15:25:47.109Z,93.82
2023-03-17T15:27:49.372Z,102.07
2023-03-17T15:29:51.400Z,77.35
2023-03-17T15:31:53.128Z,122.30
2023-03-17T15:33:57.251Z,22.50
2023-03-17T15:36:01.935Z,35.00
2023-03-17T15:38:04.477Z,14.93
2023-03-17T15:40:06.887Z,36.75
2023-03-17T15:42:11.491Z,20.17
2023-03-17T15:44:13.093Z,171.88
2023-03-17T15:46:24.893Z,34.22
2023-03-17T15:48:29.985Z,148.60
2023-03-17T15:50:33.232Z,127.45
2023-03-17T15:52:35.625Z,51.70
2023-03-17T15:54:37.582Z,303.05
2023-03-17T15:56:39.757Z,70.75
2023-03-17T15:58:41.412Z,125.00
2023-03-17T16:00:44.215Z,180.52
2023-03-17T16:02:50.936Z,73.25
2023-03-17T16:04:53.188Z,21.77
2023-03-17T16:06:54.784Z,19.25
2023-03-17T16:08:56.383Z,158.43
2023-03-17T16:10:59.040Z,36.97
2023-03-17T16:13:00.663Z,31.58
2023-03-17T16:15:10.349Z,55.78
2023-03-17T16:17:28.877Z,75.55
2023-03-17T16:19:30.743Z,268.77
2023-03-17T16:21:32.491Z,91.68
2023-03-17T16:23:37.318Z,108.53
2023-03-17T16:25:39.370Z,40.13
2023-03-17T16:27:40.980Z,75.25
2023-03-17T16:29:43.027Z,83.32
2023-03-17T16:31:49.039Z,72.40
2023-03-17T16:33:52.979Z,94.03
2023-03-17T16:35:55.885Z,70.30
2023-03-17T16:37:57.547Z,118.22
2023-03-17T16:39:59.427Z,77.45
2023-03-17T16:42:01.177Z,80.25
2023-03-17T16:44:03.291Z,104.95
2023-03-17T16:46:07.221Z,59.78
2023-03-17T16:48:13.159Z,83.47
2023-03-17T16:50:20.342Z,141.23
2023-03-17T16:52:21.886Z,115.85
2023-03-17T16:54:23.467Z,115.10
2023-03-17T16:56:27.060Z,116.57
2023-03-17T16:58:36.918Z,116.38
2023-03-17T17:02:39.909Z,82.05
2023-03-17T17:04:41.442Z,126.60
2023-03-17T17:06:42.965Z,123.15
2023-03-17T17:08:45.805Z,77.93
2023-03-17T17:10:47.335Z,59.80
2023-03-17T17:12:49.436Z,56.88
2023-03-17T17:14:51.048Z,70.78
2023-03-17T17:16:52.601Z,59.95
2023-03-17T17:18:54.701Z,61.50
2023-03-17T17:20:56.828Z,98.60
2023-03-17T17:22:59.747Z,74.30
2023-03-17T17:25:01.245Z,43.45
2023-03-17T17:27:02.895Z,82.38
2023-03-17T17:29:04.488Z,43.95
2023-03-17T17:31:07.813Z,47.92
2023-03-17T17:33:09.412Z,21.20
2023-03-17T17:35:11.838Z,17.73
2023-03-17T17:37:13.441Z,69.68
2023-03-17T17:39:15.195Z,70.15
2023-03-17T17:41:17.117Z,76.95
2023-03-17T17:43:19.267Z,104.07
2023-03-17T17:45:21.712Z,51.55
2023-03-17T17:47:23.290Z,182.55
2023-03-17T17:49:24.834Z,88.50
2023-03-17T17:51:28.336Z,57.05
2023-03-17T17:53:29.896Z,47.97
2023-03-17T17:55:33.415Z,212.38
2023-03-17T17:57:34.896Z,367.05
2023-03-17T17:59:36.445Z,105.85
2023-03-17T18:01:38.873Z,72.82
2023-03-17T18:03:42.955Z,38.83
2023-03-17T18:05:44.633Z,185.77
2023-03-17T18:07:46.191Z,49.35
2023-03-17T18:09:47.731Z,55.33
2023-03-17T18:11:49.354Z,185.50
2023-03-17T18:13:51.265Z,190.57
2023-03-17T18:15:53.012Z,96.90
2023-03-17T18:17:54.914Z,104.80
2023-03-17T18:19:56.639Z,128.52
2023-03-17T18:21:58.220Z,125.35
2023-03-17T18:23:59.860Z,270.70
2023-03-17T18:26:02.672Z,172.40
2023-03-17T18:28:04.592Z,121.15
2023-03-17T18:30:09.121Z,162.55
2023-03-17T18:32:12.286Z,111.28
2023-03-17T18:34:21.882Z,144.45
2023-03-17T18:36:24.403Z,105.40
2023-03-17T18:38:26.112Z,266.52
2023-03-17T18:40:27.673Z,184.27
2023-03-17T18:42:29.184Z,114.55
2023-03-17T18:44:30.807Z,113.13
2023-03-17T18:46:32.907Z,100.38
2023-03-17T18:48:36.187Z,105.55
2023-03-17T18:50:37.796Z,118.38
2023-03-17T18:52:41.482Z,92.40
2023-03-17T18:54:42.983Z,190.95
2023-03-17T18:56:44.518Z,128.70
2023-03-17T18:58:46.240Z,108.13
2023-03-17T19:00:49.164Z,127.40
2023-03-17T19:02:50.856Z,113.13
2023-03-17T19:04:52.502Z,87.80
2023-03-17T19:06:54.154Z,63.20
2023-03-17T19:08:56.302Z,120.60
2023-03-17T19:10:57.819Z,62.35
2023-03-17T19:12:59.823Z,64.47
2023-03-17T19:15:01.771Z,132.43
2023-03-17T19:17:03.877Z,58.20
2023-03-17T19:19:05.495Z,36.72
2023-03-17T19:21:08.504Z,42.35
2023-03-17T19:23:11.074Z,70.30
2023-03-17T19:25:12.765Z,61.28
2023-03-17T19:27:14.332Z,51.70
2023-03-17T19:29:16.716Z,54.30
2023-03-17T19:31:18.304Z,44.75
2023-03-17T19:33:19.870Z,44.10
2023-03-17T19:35:22.240Z,83.57
2023-03-17T19:37:23.790Z,87.97
2023-03-17T19:39:26.008Z,71.80
2023-03-17T19:41:27.797Z,58.65
2023-03-17T19:43:40.258Z,43.60
2023-03-17T19:45:42.755Z,49.67
2023-03-17T19:47:44.366Z,65.65
2023-03-17T19:49:45.994Z,59.75
2023-03-17T19:51:47.557Z,35.85
2023-03-17T19:53:49.349Z,36.33
2023-03-17T19:55:51.138Z,28.83
2023-03-17T19:57:53.241Z,46.50
2023-03-17T19:59:54.873Z,49.80
2023-03-17T20:01:56.888Z,44.30
2023-03-17T20:03:59.465Z,44.08
2023-03-17T20:06:06.217Z,69.05
2023-03-17T20:08:07.972Z,146.68
2023-03-17T20:10:10.855Z,27.10
2023-03-17T20:12:12.368Z,43.35
2023-03-17T20:14:14.084Z,39.17
2023-03-17T20:16:16.569Z,34.15
2023-03-17T20:18:19.006Z,37.13
2023-03-17T20:20:20.510Z,33.92
2023-03-17T20:22:22.051Z,37.35
2023-03-17T20:24:23.679Z,64.50
2023-03-17T20:26:25.615Z,41.38
2023-03-17T20:28:29.902Z,31.88
2023-03-17T20:30:32.283Z,34.47
2023-03-17T20:32:35.549Z,53.70
2023-03-17T20:34:37.821Z,34.00
2023-03-17T20:36:42.459Z,35.63
2023-03-17T20:38:44.463Z,32.20
2023-03-17T20:40:46.029Z,26.33
2023-03-17T20:42:47.539Z,26.13
2023-03-17T20:44:52.917Z,25.80
2023-03-17T20:46:54.944Z,33.13
2023-03-17T20:48:58.906Z,31.77
2023-03-17T20:51:00.836Z,26.10
2023-03-17T20:53:02.719Z,39.15
2023-03-17T20:55:06.011Z,54.47
2023-03-17T20:57:14.077Z,54.88
2023-03-17T20:59:15.585Z,49.85
2023-03-17T21:01:20.785Z,35.47
2023-03-17T21:03:22.630Z,26.55
2023-03-17T21:05:26.039Z,29.80
2023-03-17T21:07:27.852Z,26.50
2023-03-17T21:09:29.726Z,27.63
2023-03-17T21:11:31.278Z,27.52
2023-03-17T21:13:33.096Z,22.85
2023-03-17T21:15:34.594Z,17.90
2023-03-17T21:17:38.708Z,22.15
2023-03-17T21:19:40.646Z,36.03
2023-03-17T21:21:42.244Z,48.42
2023-03-17T21:23:44.673Z,54.92
2023-03-17T21:25:46.488Z,35.28
2023-03-17T21:27:48.959Z,35.67
2023-03-17T21:29:51.271Z,31.98
2023-03-17T21:31:53.002Z,24.58
2023-03-17T21:33:54.678Z,20.10
2023-03-17T21:35:58.685Z,27.60
2023-03-17T21:38:01.527Z,25.08
2023-03-17T21:40:05.128Z,24.48
2023-03-17T21:42:08.910Z,23.95
2023-03-17T21:44:13.436Z,32.75
2023-03-17T21:46:15.494Z,28.60
2023-03-17T21:48:17.651Z,24.65
2023-03-17T21:50:20.412Z,26.85
2023-03-17T21:52:22.072Z,38.00
2023-03-17T21:54:24.436Z,45.20
2023-03-17T21:56:26.110Z,36.95
2023-03-17T21:58:28.068Z,30.42
2023-03-17T22:00:39.418Z,41.03
2023-03-17T22:02:46.747Z,28.25
2023-03-17T22:04:48.825Z,28.52
2023-03-17T22:06:51.844Z,27.00
2023-03-17T22:08:53.408Z,31.38
2023-03-17T22:10:55.041Z,28.55
2023-03-17T22:12:56.554Z,27.35
2023-03-17T22:14:58.382Z,28.48
2023-03-17T22:17:00.688Z,29.38
2023-03-17T22:19:02.286Z,29.50
2023-03-17T22:21:04.986Z,30.00
2023-03-17T22:23:06.615Z,27.23
2023-03-17T22:25:08.453Z,40.05
2023-03-17T22:27:10.009Z,37.75
2023-03-17T22:29:11.542Z,31.20
2023-03-17T22:31:19.733Z,36.15
2023-03-17T22:33:21.253Z,36.53
2023-03-17T22:35:24.958Z,36.70
2023-03-17T22:37:26.699Z,26.80
2023-03-17T22:39:28.315Z,46.72
2023-03-17T22:41:30.896Z,36.20
2023-03-17T22:43:32.740Z,25.52
2023-03-17T22:45:34.404Z,27.77
2023-03-17T22:47:36.047Z,34.80
2023-03-17T22:49:37.629Z,68.20
2023-03-17T22:51:41.343Z,77.45
2023-03-17T22:53:43.478Z,54.65
2023-03-17T22:55:45.339Z,41.33
2023-03-17T22:57:47.358Z,30.80
2023-03-17T22:59:49.233Z,22.90
2023-03-17T23:01:50.978Z,21.15
2023-03-17T23:03:55.268Z,20.10
2023-03-17T23:05:59.736Z,26.98
2023-03-17T23:08:01.353Z,28.80
2023-03-17T23:10:05.039Z,42.53
2023-03-17T23:12:07.800Z,39.65
2023-03-17T23:14:09.397Z,44.35
2023-03-17T23:16:11.255Z,50.38
2023-03-17T23:18:13.204Z,45.00
2023-03-17T23:20:15.485Z,47.30
2023-03-17T23:22:17.047Z,41.58
2023-03-17T23:24:18.696Z,41.45
2023-03-17T23:26:20.729Z,39.30
2023-03-17T23:28:22.292Z,33.30
2023-03-17T23:30:24.532Z,34.15
2023-03-17T23:32:26.212Z,26.40
2023-03-17T23:34:28.529Z,29.55
2023-03-17T23:36:30.249Z,28.33
2023-03-17T23:38:32.287Z,36.30
2023-03-17T23:40:34.480Z,33.45
2023-03-17T23:42:36.786Z,48.10
2023-03-17T23:44:38.417Z,36.15
2023-03-17T23:46:40.062Z,36.13
2023-03-17T23:48:42.948Z,35.97
2023-03-17T23:50:45.457Z,31.45
2023-03-17T23:52:48.084Z,32.60
2023-03-17T23:54:49.916Z,30.80
2023-03-17T23:56:52.771Z,32.33
2023-03-17T23:58:54.796Z,44.83
